createdAt,value
2023-01-23T00:01:09.376Z,16.58
2023-01-23T00:03:37.033Z,17.40
2023-01-23T00:06:10.266Z,16.48
2023-01-23T00:08:37.225Z,14.18
2023-01-23T00:11:08.265Z,15.95
2023-01-23T00:13:35.294Z,13.85
2023-01-23T00:16:11.315Z,13.68
2023-01-23T00:18:38.616Z,15.30
2023-01-23T00:21:06.687Z,14.77
2023-01-23T00:23:34.063Z,15.18
2023-01-23T00:26:08.996Z,15.38
2023-01-23T00:28:35.537Z,17.38
2023-01-23T00:31:06.543Z,18.23
2023-01-23T00:33:33.286Z,14.20
2023-01-23T00:36:02.420Z,15.95
2023-01-23T00:38:28.936Z,14.80
2023-01-23T00:40:56.393Z,13.95
2023-01-23T00:43:24.304Z,18.83
2023-01-23T00:45:51.557Z,14.05
2023-01-23T00:48:18.076Z,19.33
2023-01-23T00:50:44.555Z,15.73
2023-01-23T00:55:45.122Z,18.70
2023-01-23T00:58:11.889Z,15.32
2023-01-23T01:00:39.323Z,15.77
2023-01-23T01:03:06.764Z,15.55
2023-01-23T01:05:33.922Z,12.77
2023-01-23T01:08:00.387Z,14.73
2023-01-23T01:10:29.326Z,17.48
2023-01-23T01:12:57.018Z,15.45
2023-01-23T01:15:23.793Z,16.55
2023-01-23T01:17:56.231Z,14.98
2023-01-23T01:20:23.871Z,14.88
2023-01-23T01:22:50.895Z,16.60
2023-01-23T01:25:17.822Z,18.98
2023-01-23T01:27:44.435Z,17.58
2023-01-23T01:30:12.049Z,18.17
2023-01-23T01:32:41.097Z,19.67
2023-01-23T01:35:08.991Z,17.67
2023-01-23T01:37:40.447Z,18.15
2023-01-23T01:40:09.425Z,17.30
2023-01-23T01:42:44.305Z,17.30
2023-01-23T01:45:48.276Z,17.27
2023-01-23T01:48:15.397Z,15.98
2023-01-23T01:50:42.381Z,17.80
2023-01-23T01:53:09.780Z,16.42
2023-01-23T01:55:37.464Z,14.57
2023-01-23T01:58:04.010Z,16.77
2023-01-23T02:00:30.876Z,20.42
2023-01-23T02:02:59.497Z,18.38
2023-01-23T02:05:35.275Z,19.25
2023-01-23T02:08:14.714Z,17.80
2023-01-23T02:10:42.195Z,19.27
2023-01-23T02:13:36.054Z,20.35
2023-01-23T02:16:08.863Z,17.10
2023-01-23T02:18:38.518Z,20.70
2023-01-23T02:21:07.696Z,18.98
2023-01-23T02:23:39.681Z,20.02
2023-01-23T02:26:11.225Z,16.98
2023-01-23T02:28:48.939Z,19.85
2023-01-23T02:31:15.792Z,21.95
2023-01-23T02:33:51.536Z,24.63
2023-01-23T02:36:20.707Z,21.55
2023-01-23T02:39:08.913Z,25.42
2023-01-23T02:41:38.508Z,19.10
2023-01-23T02:44:13.992Z,18.33
2023-01-23T02:49:07.498Z,19.50
2023-01-23T02:51:33.968Z,23.17
2023-01-23T02:54:00.732Z,17.13
2023-01-23T02:56:27.186Z,22.67
2023-01-23T02:59:11.838Z,24.80
2023-01-23T03:01:38.448Z,21.67
2023-01-23T03:04:06.435Z,23.65
2023-01-23T03:06:37.918Z,22.55
2023-01-23T03:09:13.304Z,25.08
2023-01-23T03:11:42.439Z,25.17
2023-01-23T03:14:12.383Z,27.85
2023-01-23T03:16:38.948Z,24.48
2023-01-23T03:19:08.856Z,24.90
2023-01-23T03:21:37.465Z,23.27
2023-01-23T03:24:06.212Z,22.92
2023-01-23T03:26:32.726Z,21.45
2023-01-23T03:29:18.432Z,25.63
2023-01-23T03:31:44.946Z,25.83
2023-01-23T03:34:11.482Z,27.48
2023-01-23T03:36:38.935Z,21.55
2023-01-23T03:39:25.511Z,23.42
2023-01-23T03:41:53.448Z,20.90
2023-01-23T03:44:20.899Z,26.17
2023-01-23T03:46:48.964Z,25.45
2023-01-23T03:49:15.835Z,20.67
2023-01-23T03:51:42.591Z,23.80
2023-01-23T03:54:09.040Z,19.63
2023-01-23T03:56:38.527Z,20.05
2023-01-23T03:59:04.924Z,22.52
2023-01-23T04:01:31.358Z,20.60
2023-01-23T04:03:57.842Z,19.77
2023-01-23T04:06:24.257Z,23.15
2023-01-23T04:08:50.875Z,22.23
2023-01-23T04:11:17.366Z,26.92
2023-01-23T04:13:43.862Z,23.98
2023-01-23T04:16:10.302Z,22.90
2023-01-23T04:18:36.756Z,26.23
2023-01-23T04:21:03.235Z,23.67
2023-01-23T04:23:30.082Z,25.05
2023-01-23T04:25:57.112Z,23.30
2023-01-23T04:28:23.680Z,21.15
2023-01-23T04:30:53.432Z,27.02
2023-01-23T04:33:20.530Z,28.60
2023-01-23T04:36:06.747Z,26.85
2023-01-23T04:38:33.696Z,22.58
2023-01-23T04:41:00.479Z,25.13
2023-01-23T04:43:26.968Z,23.90
2023-01-23T04:45:54.449Z,22.90
2023-01-23T04:48:20.937Z,27.55
2023-01-23T04:50:47.910Z,26.27
2023-01-23T04:53:14.661Z,25.63
2023-01-23T04:55:41.150Z,25.25
2023-01-23T04:58:08.005Z,24.17
2023-01-23T05:00:34.459Z,21.52
2023-01-23T05:03:02.514Z,22.80
2023-01-23T05:05:29.039Z,26.17
2023-01-23T05:07:55.412Z,22.00
2023-01-23T05:10:22.268Z,22.88
2023-01-23T05:12:48.842Z,21.23
2023-01-23T05:15:17.355Z,24.20
2023-01-23T05:17:43.977Z,25.63
2023-01-23T05:20:11.403Z,19.58
2023-01-23T05:22:38.027Z,27.38
2023-01-23T05:25:04.765Z,24.27
2023-01-23T05:27:31.283Z,25.15
2023-01-23T05:29:57.701Z,19.48
2023-01-23T05:32:24.131Z,24.90
2023-01-23T05:34:50.582Z,24.35
2023-01-23T05:37:17.156Z,27.27
2023-01-23T05:39:43.798Z,26.85
2023-01-23T05:42:10.216Z,24.95
2023-01-23T05:44:36.663Z,26.45
2023-01-23T05:47:03.322Z,28.13
2023-01-23T05:49:29.719Z,26.77
2023-01-23T05:51:56.167Z,27.42
2023-01-23T05:54:22.577Z,22.20
2023-01-23T05:56:48.997Z,28.40
2023-01-23T05:59:15.468Z,29.65
2023-01-23T06:01:41.975Z,28.70
2023-01-23T06:04:08.439Z,26.35
2023-01-23T06:06:34.924Z,26.20
2023-01-23T06:09:01.365Z,27.60
2023-01-23T06:11:27.728Z,27.10
2023-01-23T06:13:54.124Z,26.85
2023-01-23T06:16:20.733Z,25.48
2023-01-23T06:18:47.269Z,25.42
2023-01-23T06:21:15.189Z,27.27
2023-01-23T06:23:41.653Z,27.80
2023-01-23T06:26:08.310Z,26.35
2023-01-23T06:28:34.766Z,28.65
2023-01-23T06:31:02.803Z,25.15
2023-01-23T06:33:30.547Z,27.38
2023-01-23T06:35:58.902Z,25.83
2023-01-23T06:38:25.515Z,24.55
2023-01-23T06:40:51.947Z,26.17
2023-01-23T06:43:18.410Z,26.60
2023-01-23T06:45:45.860Z,26.95
2023-01-23T06:48:13.118Z,30.25
2023-01-23T06:50:40.907Z,24.13
2023-01-23T06:53:10.354Z,21.77
2023-01-23T06:55:36.851Z,23.73
2023-01-23T06:58:03.290Z,30.83
2023-01-23T07:00:29.682Z,28.80
2023-01-23T07:02:58.869Z,31.52
2023-01-23T07:05:25.429Z,31.33
2023-01-23T07:07:52.212Z,28.17
2023-01-23T07:10:18.897Z,30.08
2023-01-23T07:12:45.433Z,25.45
2023-01-23T07:15:11.878Z,24.48
2023-01-23T07:17:38.331Z,24.20
2023-01-23T07:20:05.172Z,32.83
2023-01-23T07:22:32.093Z,26.35
2023-01-23T07:24:58.676Z,26.95
2023-01-23T07:27:25.070Z,24.30
2023-01-23T07:29:51.524Z,23.73
2023-01-23T07:32:17.981Z,24.92
2023-01-23T07:34:44.350Z,31.23
2023-01-23T07:37:10.846Z,21.35
2023-01-23T07:39:37.290Z,25.00
2023-01-23T07:42:03.859Z,23.80
2023-01-23T07:44:30.394Z,29.05
2023-01-23T07:46:57.379Z,31.30
2023-01-23T07:49:23.831Z,25.13
2023-01-23T07:51:50.245Z,24.13
2023-01-23T07:54:16.691Z,29.63
2023-01-23T07:56:43.104Z,27.73
2023-01-23T07:59:11.855Z,27.08
2023-01-23T08:01:38.259Z,26.83
2023-01-23T08:04:04.849Z,30.25
2023-01-23T08:06:31.381Z,27.83
2023-01-23T08:08:57.794Z,24.30
2023-01-23T08:11:26.406Z,34.50
2023-01-23T08:13:52.821Z,25.75
2023-01-23T08:16:19.368Z,27.05
2023-01-23T08:18:45.814Z,30.42
2023-01-23T08:21:12.377Z,25.52
2023-01-23T08:23:40.921Z,27.48
2023-01-23T08:26:09.120Z,24.92
2023-01-23T08:28:36.198Z,24.35
2023-01-23T08:31:06.808Z,25.88
2023-01-23T08:33:34.903Z,29.65
2023-01-23T08:36:01.334Z,24.20
2023-01-23T08:38:28.062Z,29.02
2023-01-23T08:40:58.300Z,27.02
2023-01-23T08:43:24.967Z,23.38
2023-01-23T08:45:54.480Z,20.88
2023-01-23T08:50:49.469Z,24.35
2023-01-23T08:53:16.592Z,18.83
2023-01-23T08:55:43.213Z,27.08
2023-01-23T08:58:13.125Z,26.92
2023-01-23T09:00:40.423Z,28.08
2023-01-23T09:03:06.966Z,23.13
2023-01-23T09:05:33.441Z,34.40
2023-01-23T09:07:59.973Z,30.05
2023-01-23T09:10:26.737Z,28.55
2023-01-23T09:12:54.577Z,27.52
2023-01-23T09:15:22.513Z,25.52
2023-01-23T09:17:49.879Z,26.08
2023-01-23T09:20:16.994Z,27.00
2023-01-23T09:22:43.532Z,26.45
2023-01-23T09:25:10.846Z,28.33
2023-01-23T09:27:37.242Z,29.17
2023-01-23T09:30:04.730Z,25.75
2023-01-23T09:32:31.189Z,25.83
2023-01-23T09:34:57.791Z,26.92
2023-01-23T09:37:24.183Z,31.73
2023-01-23T09:39:50.587Z,21.63
2023-01-23T09:42:31.534Z,30.92
2023-01-23T09:45:03.624Z,30.63
2023-01-23T09:47:36.464Z,28.88
2023-01-23T09:50:08.180Z,27.25
2023-01-23T09:52:41.597Z,24.63
2023-01-23T09:55:22.135Z,26.88
2023-01-23T09:57:55.032Z,30.10
2023-01-23T10:00:33.627Z,25.40
2023-01-23T10:03:12.273Z,24.95
2023-01-23T10:06:08.994Z,22.98
2023-01-23T10:09:00.192Z,25.33
2023-01-23T10:11:49.267Z,23.65
2023-01-23T10:14:35.888Z,22.10
2023-01-23T10:17:07.117Z,23.58
2023-01-23T10:19:46.745Z,20.98
2023-01-23T10:23:00.704Z,25.38
2023-01-23T10:25:32.721Z,23.70
2023-01-23T10:28:29.838Z,25.83
2023-01-23T10:31:00.975Z,21.05
2023-01-23T10:33:40.393Z,23.80
2023-01-23T10:36:23.850Z,22.83
2023-01-23T10:39:04.523Z,26.60
2023-01-23T10:41:31.560Z,25.10
2023-01-23T10:43:59.430Z,22.27
2023-01-23T10:46:38.025Z,26.77
2023-01-23T10:49:05.039Z,26.45
2023-01-23T10:51:45.880Z,24.75
2023-01-23T10:54:33.851Z,27.55
2023-01-23T10:57:22.150Z,29.02
2023-01-23T10:59:57.060Z,23.73
2023-01-23T11:02:41.789Z,29.20
2023-01-23T11:05:50.323Z,27.38
2023-01-23T11:08:27.434Z,26.23
2023-01-23T11:11:14.493Z,27.35
2023-01-23T11:13:45.711Z,27.38
2023-01-23T11:16:23.357Z,29.88
2023-01-23T11:18:55.122Z,27.40
2023-01-23T11:21:29.444Z,28.50
2023-01-23T11:24:38.977Z,28.75
2023-01-23T11:27:19.420Z,28.38
2023-01-23T11:30:04.345Z,27.60
2023-01-23T11:32:35.346Z,29.52
2023-01-23T11:35:15.409Z,26.48
2023-01-23T11:37:42.329Z,31.17
2023-01-23T11:40:14.963Z,31.45
2023-01-23T11:42:43.039Z,28.98
2023-01-23T11:45:31.274Z,27.05
2023-01-23T11:48:06.820Z,27.27
2023-01-23T11:50:54.447Z,26.40
2023-01-23T11:53:41.807Z,28.60
2023-01-23T11:56:12.041Z,26.23
2023-01-23T11:58:53.643Z,27.33
2023-01-23T12:04:16.169Z,31.50
2023-01-23T12:06:51.811Z,28.63
2023-01-23T12:09:20.236Z,26.70
2023-01-23T12:12:23.748Z,30.50
2023-01-23T12:15:19.720Z,34.85
2023-01-23T12:18:22.233Z,30.05
2023-01-23T12:21:09.970Z,27.27
2023-01-23T12:26:24.974Z,27.42
2023-01-23T12:29:09.812Z,28.17
2023-01-23T12:31:42.875Z,25.48
2023-01-23T12:34:35.658Z,32.15
2023-01-23T12:37:32.315Z,34.10
2023-01-23T12:40:22.417Z,25.63
2023-01-23T12:43:14.488Z,26.70
2023-01-23T12:45:58.049Z,29.45
2023-01-23T12:48:39.486Z,28.90
2023-01-23T12:51:14.772Z,28.83
2023-01-23T12:56:38.478Z,27.27
2023-01-23T12:59:17.720Z,29.08
2023-01-23T13:01:55.549Z,30.48
2023-01-23T13:04:31.076Z,29.20
2023-01-23T13:09:48.656Z,23.83
2023-01-23T13:12:25.956Z,26.20
2023-01-23T13:15:14.459Z,24.73
2023-01-23T13:17:44.089Z,25.67
2023-01-23T13:23:31.656Z,27.17
2023-01-23T13:26:16.442Z,28.73
2023-01-23T13:28:46.471Z,25.90
2023-01-23T13:31:34.851Z,28.85
2023-01-23T13:34:15.367Z,29.30
2023-01-23T13:36:46.469Z,34.85
2023-01-23T13:39:29.960Z,31.20
2023-01-23T13:42:14.720Z,33.60
2023-01-23T13:45:26.770Z,32.78
2023-01-23T14:21:49.584Z,28.65
2023-01-23T14:24:56.722Z,28.65
2023-01-23T14:27:36.836Z,28.30
2023-01-23T14:30:19.097Z,33.65
2023-01-23T14:32:46.396Z,37.70
2023-01-23T14:35:27.556Z,33.33
2023-01-23T14:37:57.839Z,32.67
2023-01-23T14:40:28.118Z,32.75
2023-01-23T14:43:01.203Z,31.48
2023-01-23T14:45:33.195Z,30.25
2023-01-23T14:48:05.906Z,30.92
2023-01-23T14:50:32.916Z,33.42
2023-01-23T14:53:11.978Z,32.22
2023-01-23T14:55:41.786Z,26.92
2023-01-23T14:58:18.137Z,29.92
2023-01-23T15:00:45.979Z,32.00
2023-01-23T15:03:13.092Z,30.70
2023-01-23T15:05:41.655Z,35.97
2023-01-23T15:08:30.629Z,33.03
2023-01-23T15:11:00.476Z,39.20
2023-01-23T15:13:36.757Z,39.70
2023-01-23T15:16:07.009Z,36.85
2023-01-23T15:18:35.904Z,36.35
2023-01-23T15:21:08.082Z,37.95
2023-01-23T15:23:39.640Z,36.47
2023-01-23T15:26:10.794Z,30.77
2023-01-23T15:29:01.865Z,32.13
2023-01-23T15:31:31.823Z,35.40
2023-01-23T15:34:16.682Z,27.23
2023-01-23T15:36:47.670Z,34.83
2023-01-23T15:39:20.015Z,31.15
2023-01-23T15:41:52.837Z,30.02
2023-01-23T15:44:21.280Z,34.67
2023-01-23T15:46:48.051Z,31.50
2023-01-23T15:49:24.773Z,31.92
2023-01-23T15:51:51.955Z,28.92
2023-01-23T15:54:26.561Z,30.40
2023-01-23T15:57:00.509Z,29.02
2023-01-23T15:59:34.322Z,25.33
2023-01-23T16:02:00.939Z,35.13
2023-01-23T16:04:27.511Z,29.55
2023-01-23T16:06:53.965Z,31.60
2023-01-23T16:09:30.494Z,30.42
2023-01-23T16:12:00.475Z,32.30
2023-01-23T16:14:27.189Z,29.02
2023-01-23T16:16:54.427Z,32.17
2023-01-23T16:19:21.193Z,32.92
2023-01-23T16:22:03.186Z,29.08
2023-01-23T16:24:36.895Z,30.70
2023-01-23T16:27:03.875Z,30.42
2023-01-23T16:29:33.501Z,31.05
2023-01-23T16:32:02.150Z,28.20
2023-01-23T16:34:30.016Z,32.30
2023-01-23T16:36:58.633Z,35.15
2023-01-23T16:39:32.106Z,33.33
2023-01-23T16:41:59.804Z,32.88
2023-01-23T16:44:26.892Z,32.92
2023-01-23T16:46:53.914Z,31.45
2023-01-23T16:49:20.985Z,34.25
2023-01-23T16:51:59.005Z,33.08
2023-01-23T16:54:26.304Z,29.33
2023-01-23T16:56:54.411Z,36.78
2023-01-23T16:59:41.338Z,36.95
2023-01-23T17:02:25.348Z,29.67
2023-01-23T17:04:51.766Z,32.45
2023-01-23T17:07:20.361Z,29.77
2023-01-23T17:09:47.639Z,33.97
2023-01-23T17:12:21.002Z,33.28
2023-01-23T17:14:48.925Z,28.40
2023-01-23T17:17:30.179Z,31.00
2023-01-23T17:19:57.528Z,28.67
2023-01-23T17:22:30.529Z,27.35
2023-01-23T17:24:57.420Z,30.13
2023-01-23T17:27:24.281Z,29.25
2023-01-23T17:29:50.702Z,29.77
2023-01-23T17:32:32.983Z,25.88
2023-01-23T17:35:03.165Z,23.42
2023-01-23T17:37:30.559Z,25.33
2023-01-23T17:39:57.063Z,26.63
2023-01-23T17:42:23.516Z,26.65
2023-01-23T17:44:50.532Z,29.50
2023-01-23T17:47:17.433Z,28.17
2023-01-23T17:49:49.619Z,27.45
2023-01-23T17:52:16.093Z,26.35
2023-01-23T17:54:42.550Z,29.58
2023-01-23T17:57:08.971Z,29.05
2023-01-23T17:59:35.333Z,32.08
2023-01-23T18:02:01.873Z,28.33
2023-01-23T18:04:28.361Z,27.35
2023-01-23T18:06:54.810Z,27.23
2023-01-23T18:09:21.286Z,29.70
2023-01-23T18:11:52.269Z,26.38
2023-01-23T18:14:39.313Z,28.58
2023-01-23T18:17:22.738Z,32.55
2023-01-23T18:19:51.589Z,29.83
2023-01-23T18:22:18.316Z,24.80
2023-01-23T18:24:45.118Z,26.30
2023-01-23T18:27:17.414Z,29.35
2023-01-23T18:30:27.904Z,31.25
2023-01-23T18:33:06.826Z,27.42
2023-01-23T18:35:54.975Z,28.92
2023-01-23T18:38:28.338Z,30.27
2023-01-23T18:41:21.260Z,28.50
2023-01-23T18:43:54.089Z,26.10
2023-01-23T18:46:23.897Z,33.33
2023-01-23T18:48:50.593Z,32.10
2023-01-23T18:51:45.554Z,35.97
2023-01-23T18:54:51.735Z,35.92
2023-01-23T18:57:36.580Z,28.98
2023-01-23T19:00:34.304Z,33.53
2023-01-23T19:03:14.468Z,27.90
2023-01-23T19:05:41.811Z,29.38
2023-01-23T19:08:35.345Z,29.20
2023-01-23T19:11:06.867Z,30.15
2023-01-23T19:14:00.518Z,25.85
2023-01-23T19:16:32.746Z,26.10
2023-01-23T19:19:16.454Z,25.02
2023-01-23T19:21:46.256Z,29.77
2023-01-23T19:24:15.234Z,27.10
2023-01-23T19:26:41.999Z,29.00
2023-01-23T19:29:21.069Z,25.88
2023-01-23T19:32:03.504Z,26.08
2023-01-23T19:34:30.423Z,29.45
2023-01-23T19:36:56.799Z,30.77
2023-01-23T19:39:23.178Z,27.33
2023-01-23T19:41:49.704Z,27.13
2023-01-23T19:44:18.550Z,28.50
2023-01-23T19:46:46.012Z,27.95
2023-01-23T19:49:13.629Z,28.40
2023-01-23T19:51:40.913Z,27.13
2023-01-23T19:54:12.498Z,31.05
2023-01-23T19:56:39.597Z,32.67
2023-01-23T19:59:06.912Z,28.42
2023-01-23T20:01:37.013Z,25.70
2023-01-23T20:04:05.209Z,27.50
2023-01-23T20:06:33.139Z,35.67
2023-01-23T20:09:00.509Z,29.70
2023-01-23T20:11:26.922Z,26.65
2023-01-23T20:13:54.975Z,27.20
2023-01-23T20:16:26.717Z,34.03
2023-01-23T20:18:54.215Z,29.48
2023-01-23T20:21:23.895Z,32.17
2023-01-23T20:23:51.120Z,33.25
2023-01-23T20:26:19.476Z,28.35
2023-01-23T20:28:53.638Z,30.85
2023-01-23T20:31:21.012Z,29.40
2023-01-23T20:33:48.791Z,30.17
2023-01-23T20:36:15.981Z,30.42
2023-01-23T20:38:43.090Z,28.02
2023-01-23T20:41:18.900Z,29.77
2023-01-23T20:43:45.669Z,30.67
2023-01-23T20:46:14.090Z,33.78
2023-01-23T20:48:44.211Z,31.92
2023-01-23T20:51:11.856Z,29.20
2023-01-23T20:53:39.957Z,28.75
2023-01-23T20:56:15.832Z,28.42
2023-01-23T20:59:02.878Z,27.55
2023-01-23T21:01:51.786Z,29.60
2023-01-23T21:04:18.412Z,27.95
2023-01-23T21:06:44.780Z,27.60
2023-01-23T21:09:11.252Z,34.63
2023-01-23T21:11:37.646Z,31.90
2023-01-23T21:14:04.174Z,31.20
2023-01-23T21:16:32.197Z,32.88
2023-01-23T21:18:58.600Z,33.25
2023-01-23T21:21:25.001Z,26.05
2023-01-23T21:23:51.592Z,30.73
2023-01-23T21:26:20.550Z,27.98
2023-01-23T21:28:48.951Z,28.85
2023-01-23T21:31:21.836Z,25.70
2023-01-23T21:33:48.674Z,30.45
2023-01-23T21:36:20.999Z,30.27
2023-01-23T21:38:48.230Z,29.10
2023-01-23T21:41:14.726Z,31.23
2023-01-23T21:43:41.217Z,25.80
2023-01-23T21:46:07.963Z,28.58
2023-01-23T21:48:34.880Z,31.27
2023-01-23T21:51:08.760Z,28.92
2023-01-23T21:53:40.143Z,29.48
2023-01-23T21:56:08.161Z,30.70
2023-01-23T21:58:34.976Z,29.52
2023-01-23T22:01:23.540Z,26.17
2023-01-23T22:03:50.395Z,25.92
2023-01-23T22:06:16.934Z,30.55
2023-01-23T22:08:43.558Z,26.90
2023-01-23T22:11:11.032Z,26.23
2023-01-23T22:13:37.894Z,28.73
2023-01-23T22:16:05.105Z,29.65
2023-01-23T22:18:32.677Z,28.80
2023-01-23T22:21:02.223Z,30.00
2023-01-23T22:23:29.140Z,27.33
2023-01-23T22:25:57.631Z,25.70
2023-01-23T22:28:24.088Z,26.83
2023-01-23T22:30:50.740Z,25.83
2023-01-23T22:33:18.063Z,26.88
2023-01-23T22:35:44.664Z,27.55
2023-01-23T22:38:12.520Z,24.63
2023-01-23T22:40:41.966Z,25.80
2023-01-23T22:43:09.518Z,25.15
2023-01-23T22:45:36.822Z,24.23
2023-01-23T22:48:03.471Z,22.98
2023-01-23T22:50:29.895Z,25.67
2023-01-23T22:52:56.261Z,25.80
2023-01-23T22:55:23.291Z,27.23
2023-01-23T22:57:52.110Z,27.80
2023-01-23T23:00:18.791Z,31.33
2023-01-23T23:02:45.205Z,29.05
2023-01-23T23:05:11.614Z,30.40
2023-01-23T23:07:38.273Z,24.83
2023-01-23T23:10:07.302Z,27.55
2023-01-23T23:12:34.141Z,24.58
2023-01-23T23:15:00.521Z,32.58
2023-01-23T23:17:29.873Z,29.13
2023-01-23T23:19:56.387Z,24.33
2023-01-23T23:22:22.800Z,22.92
2023-01-23T23:24:49.196Z,26.95
2023-01-23T23:27:15.589Z,25.83
2023-01-23T23:29:41.993Z,27.02
2023-01-23T23:32:08.724Z,26.65
2023-01-23T23:34:36.287Z,27.20
2023-01-23T23:37:03.866Z,25.05
2023-01-23T23:39:30.294Z,25.50
2023-01-23T23:41:56.723Z,25.38
2023-01-23T23:44:23.142Z,27.10
2023-01-23T23:46:49.579Z,27.42
2023-01-23T23:49:15.985Z,25.50
2023-01-23T23:51:42.381Z,23.90
2023-01-23T23:54:08.785Z,28.83
2023-01-23T23:56:35.236Z,25.38
2023-01-23T23:59:02.307Z,27.83
